createdAt,value
2019-01-09T00:00:35.300Z,92885.78
2019-01-09T00:03:03.010Z,92882.52
2019-01-09T00:05:30.577Z,92884.89
2019-01-09T00:07:58.064Z,92882.23
2019-01-09T00:10:25.558Z,92884.45
2019-01-09T00:12:53.150Z,92887.56
2019-01-09T00:15:20.676Z,92876.64
2019-01-09T00:17:48.174Z,92882.16
2019-01-09T00:20:15.642Z,92881.34
2019-01-09T00:22:43.145Z,92884.69
2019-01-09T00:25:10.630Z,92879.55
2019-01-09T00:27:38.202Z,92875.77
2019-01-09T00:30:05.935Z,92880.01
2019-01-09T00:32:34.283Z,92869.91
2019-01-09T00:35:01.831Z,92872.80
2019-01-09T00:37:29.328Z,92872.56
2019-01-09T00:39:56.826Z,92878.84
2019-01-09T00:42:24.495Z,92880.66
2019-01-09T00:44:52.101Z,92880.67
2019-01-09T00:47:19.637Z,92887.89
2019-01-09T00:49:47.131Z,92889.23
2019-01-09T00:52:14.650Z,92892.19
2019-01-09T00:54:42.183Z,92892.22
2019-01-09T00:57:09.775Z,92894.36
2019-01-09T00:59:37.433Z,92877.84
2019-01-09T01:02:45.343Z,92876.06
2019-01-09T01:05:49.770Z,92869.81
2019-01-09T01:09:06.755Z,92867.01
2019-01-09T01:12:04.496Z,92877.53
2019-01-09T01:15:12.356Z,92878.00
2019-01-09T01:18:21.660Z,92878.42
2019-01-09T01:21:08.404Z,92872.55
2019-01-09T01:24:35.602Z,92871.24
2019-01-09T01:27:11.511Z,92880.95
2019-01-09T01:30:16.641Z,92873.78
2019-01-09T01:33:01.204Z,92876.41
2019-01-09T01:36:15.148Z,92876.73
2019-01-09T01:39:20.601Z,92882.69
2019-01-09T01:42:14.437Z,92882.29
2019-01-09T01:45:13.821Z,92884.84
2019-01-09T01:48:15.500Z,92882.67
2019-01-09T01:51:23.410Z,92879.24
2019-01-09T01:54:19.585Z,92873.61
2019-01-09T01:57:07.919Z,92874.97
2019-01-09T02:00:01.103Z,92861.92
2019-01-09T02:03:06.254Z,92858.95
2019-01-09T02:05:49.097Z,92856.81
2019-01-09T02:08:54.168Z,92857.23
2019-01-09T02:11:56.059Z,92853.09
2019-01-09T02:15:08.106Z,92847.16
2019-01-09T02:17:44.492Z,92839.55
2019-01-09T02:20:48.852Z,92833.62
2019-01-09T02:23:43.138Z,92829.80
2019-01-09T02:26:35.051Z,92827.38
2019-01-09T02:29:12.991Z,92827.81
2019-01-09T02:31:52.089Z,92822.37
2019-01-09T02:34:19.702Z,92819.05
2019-01-09T02:36:47.156Z,92824.09
2019-01-09T02:39:14.647Z,92816.95
2019-01-09T02:41:42.115Z,92816.15
2019-01-09T02:44:09.656Z,92803.16
2019-01-09T02:46:37.283Z,92796.09
2019-01-09T02:49:04.819Z,92783.45
2019-01-09T02:51:32.429Z,92789.77
2019-01-09T02:53:59.947Z,92784.34
2019-01-09T02:56:27.422Z,92799.83
2019-01-09T02:58:54.980Z,92796.03
2019-01-09T03:01:22.446Z,92793.09
2019-01-09T03:03:49.927Z,92789.30
2019-01-09T03:06:22.992Z,92785.08
2019-01-09T03:08:46.873Z,92788.38
2019-01-09T03:11:14.822Z,92780.39
2019-01-09T03:13:44.262Z,92785.39
2019-01-09T03:16:12.234Z,92785.77
2019-01-09T03:18:39.881Z,92781.14
2019-01-09T03:21:07.528Z,92770.75
2019-01-09T03:23:35.163Z,92771.99
2019-01-09T03:26:02.814Z,92768.59
2019-01-09T03:28:30.422Z,92768.48
2019-01-09T03:30:58.209Z,92755.34
2019-01-09T03:33:26.231Z,92759.18
2019-01-09T03:35:53.732Z,92762.09
2019-01-09T03:38:21.313Z,92747.27
2019-01-09T03:40:48.797Z,92741.16
2019-01-09T03:43:16.308Z,92733.50
2019-01-09T03:45:43.833Z,92738.09
2019-01-09T03:48:11.345Z,92732.33
2019-01-09T03:50:38.811Z,92733.20
2019-01-09T03:53:06.333Z,92730.70
2019-01-09T03:55:33.797Z,92737.64
2019-01-09T03:58:01.354Z,92733.48
2019-01-09T04:00:28.784Z,92724.56
2019-01-09T04:02:56.350Z,92721.67
2019-01-09T04:05:24.099Z,92725.52
2019-01-09T04:07:51.618Z,92723.44
2019-01-09T04:10:19.075Z,92719.66
2019-01-09T04:12:46.551Z,92715.94
2019-01-09T04:15:14.141Z,92717.15
2019-01-09T04:17:41.827Z,92713.73
2019-01-09T04:20:09.326Z,92716.94
2019-01-09T04:22:36.782Z,92709.82
2019-01-09T04:25:04.433Z,92700.17
2019-01-09T04:27:31.936Z,92697.56
2019-01-09T04:29:59.462Z,92692.90
2019-01-09T04:32:26.968Z,92691.89
2019-01-09T04:34:54.434Z,92699.05
2019-01-09T04:37:21.934Z,92707.73
2019-01-09T04:39:49.424Z,92703.19
2019-01-09T04:42:16.900Z,92703.91
2019-01-09T04:44:44.387Z,92711.59
2019-01-09T04:47:11.956Z,92702.25
2019-01-09T04:49:39.450Z,92698.41
2019-01-09T04:52:06.963Z,92694.51
2019-01-09T04:54:34.482Z,92696.63
2019-01-09T04:57:02.118Z,92694.20
2019-01-09T04:59:29.662Z,92690.80
2019-01-09T05:01:57.290Z,92686.20
2019-01-09T05:04:24.851Z,92676.48
2019-01-09T05:07:00.319Z,92667.52
2019-01-09T05:09:21.835Z,92670.14
2019-01-09T05:11:49.477Z,92665.73
2019-01-09T05:14:16.955Z,92666.16
2019-01-09T05:16:44.487Z,92659.01
2019-01-09T05:19:11.999Z,92657.49
2019-01-09T05:21:39.500Z,92643.47
2019-01-09T05:24:07.017Z,92631.05
2019-01-09T05:26:34.570Z,92625.75
2019-01-09T05:29:02.149Z,92630.87
2019-01-09T05:31:29.669Z,92627.89
2019-01-09T05:33:57.274Z,92632.13
2019-01-09T05:36:24.977Z,92627.16
2019-01-09T05:38:52.593Z,92625.63
2019-01-09T05:41:20.168Z,92623.59
2019-01-09T05:43:47.779Z,92614.81
2019-01-09T05:46:15.590Z,92624.13
2019-01-09T05:48:43.238Z,92620.83
2019-01-09T05:51:10.848Z,92616.66
2019-01-09T05:53:38.344Z,92620.39
2019-01-09T05:56:05.997Z,92612.41
2019-01-09T05:58:33.667Z,92612.45
2019-01-09T06:01:01.151Z,92610.80
2019-01-09T06:03:28.791Z,92603.25
2019-01-09T06:05:56.339Z,92603.25
2019-01-09T06:08:24.045Z,92597.81
2019-01-09T06:10:52.028Z,92595.26
2019-01-09T06:13:19.715Z,92590.23
2019-01-09T06:15:47.352Z,92593.13
2019-01-09T06:18:14.842Z,92602.33
2019-01-09T06:20:42.646Z,92589.67
2019-01-09T06:23:10.302Z,92590.94
2019-01-09T06:25:37.913Z,92589.66
2019-01-09T06:28:05.814Z,92593.00
2019-01-09T06:30:33.425Z,92593.88
2019-01-09T06:33:01.047Z,92590.53
2019-01-09T06:35:28.705Z,92594.27
2019-01-09T06:37:56.500Z,92592.95
2019-01-09T06:40:24.466Z,92606.72
2019-01-09T06:42:52.538Z,92599.84
2019-01-09T06:45:20.443Z,92590.00
2019-01-09T06:47:48.217Z,92590.30
2019-01-09T06:50:18.104Z,92601.03
2019-01-09T06:52:46.017Z,92597.15
2019-01-09T06:55:13.920Z,92599.88
2019-01-09T06:57:41.507Z,92606.78
2019-01-09T07:00:09.382Z,92602.34
2019-01-09T07:02:36.925Z,92602.25
2019-01-09T07:05:05.093Z,92606.27
2019-01-09T07:07:36.177Z,92602.41
2019-01-09T07:10:02.958Z,92582.77
2019-01-09T07:12:30.924Z,92583.43
2019-01-09T07:14:58.869Z,92587.71
2019-01-09T07:17:26.619Z,92591.30
2019-01-09T07:19:54.286Z,92607.56
2019-01-09T07:22:21.952Z,92603.17
2019-01-09T07:24:49.649Z,92600.70
2019-01-09T07:27:17.785Z,92591.84
2019-01-09T07:29:45.465Z,92587.67
2019-01-09T07:32:13.419Z,92588.17
2019-01-09T07:34:41.174Z,92588.27
2019-01-09T07:37:09.035Z,92588.88
2019-01-09T07:39:36.653Z,92581.36
2019-01-09T07:42:04.447Z,92593.71
2019-01-09T07:44:32.398Z,92592.35
2019-01-09T07:47:00.065Z,92584.42
2019-01-09T07:49:27.885Z,92575.02
2019-01-09T07:51:55.632Z,92577.55
2019-01-09T07:54:23.484Z,92583.96
2019-01-09T07:56:51.074Z,92585.31
2019-01-09T07:59:19.155Z,92576.83
2019-01-09T08:01:47.188Z,92573.77
2019-01-09T08:04:14.977Z,92570.03
2019-01-09T08:06:42.574Z,92560.89
2019-01-09T08:09:10.472Z,92558.58
2019-01-09T08:11:38.166Z,92563.22
2019-01-09T08:14:05.756Z,92571.59
2019-01-09T08:16:33.502Z,92584.57
2019-01-09T08:19:01.270Z,92579.41
2019-01-09T08:21:28.949Z,92578.65
2019-01-09T08:23:56.700Z,92583.70
2019-01-09T08:26:24.454Z,92577.17
2019-01-09T08:28:52.131Z,92577.96
2019-01-09T08:31:19.932Z,92573.39
2019-01-09T08:33:47.592Z,92565.97
2019-01-09T08:36:15.542Z,92562.70
2019-01-09T08:38:43.413Z,92560.88
2019-01-09T08:41:11.915Z,92557.14
2019-01-09T08:43:40.193Z,92554.55
2019-01-09T08:46:08.268Z,92563.16
2019-01-09T08:48:36.565Z,92560.77
2019-01-09T08:51:04.322Z,92571.38
2019-01-09T08:53:32.086Z,92565.81
2019-01-09T08:56:00.073Z,92568.13
2019-01-09T08:58:27.852Z,92563.64
2019-01-09T09:00:55.623Z,92567.38
2019-01-09T09:03:23.559Z,92560.55
2019-01-09T09:05:51.585Z,92553.72
2019-01-09T09:08:19.967Z,92560.55
2019-01-09T09:10:48.282Z,92554.41
2019-01-09T09:13:38.310Z,92544.44
2019-01-09T09:16:07.710Z,92543.77
2019-01-09T09:18:35.486Z,92553.29
2019-01-09T09:21:03.296Z,92550.59
2019-01-09T09:23:31.147Z,92552.91
2019-01-09T09:25:58.889Z,92536.72
2019-01-09T09:28:26.820Z,92531.17
2019-01-09T09:30:54.825Z,92516.86
2019-01-09T09:33:22.741Z,92521.19
2019-01-09T09:35:50.795Z,92517.91
2019-01-09T09:38:20.761Z,92517.99
2019-01-09T09:40:48.729Z,92523.61
2019-01-09T09:43:17.046Z,92520.41
2019-01-09T09:45:44.974Z,92524.11
2019-01-09T09:48:12.868Z,92516.66
2019-01-09T09:50:40.782Z,92511.25
2019-01-09T09:53:08.752Z,92514.31
2019-01-09T09:55:37.068Z,92515.38
2019-01-09T09:58:05.980Z,92511.89
2019-01-09T10:00:34.197Z,92513.48
2019-01-09T10:03:02.261Z,92507.02
2019-01-09T10:05:30.985Z,92510.11
2019-01-09T10:07:59.133Z,92498.70
2019-01-09T10:10:27.013Z,92503.84
2019-01-09T10:12:55.004Z,92507.16
2019-01-09T10:15:22.802Z,92500.37
2019-01-09T10:17:50.585Z,92485.20
2019-01-09T10:20:18.577Z,92489.20
2019-01-09T10:22:48.169Z,92482.64
2019-01-09T10:25:16.381Z,92481.46
2019-01-09T10:27:44.278Z,92469.96
2019-01-09T10:30:14.835Z,92470.21
2019-01-09T10:32:42.592Z,92465.19
2019-01-09T10:35:10.517Z,92460.93
2019-01-09T10:37:38.340Z,92453.78
2019-01-09T10:40:07.585Z,92448.70
2019-01-09T10:42:35.356Z,92443.86
2019-01-09T10:45:03.391Z,92440.44
2019-01-09T10:47:31.179Z,92440.44
2019-01-09T10:49:59.019Z,92433.05
2019-01-09T10:52:26.713Z,92426.94
2019-01-09T10:54:54.378Z,92420.95
2019-01-09T10:57:22.078Z,92414.20
2019-01-09T10:59:49.783Z,92399.14
2019-01-09T11:02:17.294Z,92400.88
2019-01-09T11:04:45.157Z,92400.45
2019-01-09T11:07:12.822Z,92393.73
2019-01-09T11:09:40.513Z,92390.47
2019-01-09T11:12:08.281Z,92375.36
2019-01-09T11:14:36.016Z,92369.53
2019-01-09T11:17:03.687Z,92356.81
2019-01-09T11:19:31.257Z,92346.64
2019-01-09T11:21:58.808Z,92356.78
2019-01-09T11:24:26.533Z,92354.84
2019-01-09T11:26:54.253Z,92356.15
2019-01-09T11:29:21.993Z,92352.07
2019-01-09T11:31:49.541Z,92353.84
2019-01-09T11:34:17.208Z,92350.63
2019-01-09T11:36:45.010Z,92345.56
2019-01-09T11:39:12.758Z,92337.45
2019-01-09T11:41:40.351Z,92324.16
2019-01-09T11:44:08.017Z,92320.98
2019-01-09T11:46:35.909Z,92311.16
2019-01-09T11:49:03.669Z,92311.93
2019-01-09T11:51:31.359Z,92315.06
2019-01-09T11:53:59.078Z,92306.89
2019-01-09T11:56:26.675Z,92305.20
2019-01-09T11:58:54.429Z,92296.99
2019-01-09T12:01:22.050Z,92296.58
2019-01-09T12:03:49.834Z,92293.13
2019-01-09T12:06:17.817Z,92288.47
2019-01-09T12:08:45.670Z,92288.33
2019-01-09T12:11:13.929Z,92283.59
2019-01-09T12:13:41.954Z,92278.83
2019-01-09T12:16:10.770Z,92274.09
2019-01-09T12:18:39.068Z,92275.09
2019-01-09T12:21:16.546Z,92277.41
2019-01-09T12:23:36.769Z,92272.42
2019-01-09T12:26:04.772Z,92274.59
2019-01-09T12:28:33.163Z,92273.98
2019-01-09T12:31:02.228Z,92272.00
2019-01-09T12:33:30.106Z,92271.29
2019-01-09T12:35:58.292Z,92264.59
2019-01-09T12:38:27.094Z,92260.55
2019-01-09T12:40:55.020Z,92253.75
2019-01-09T12:43:23.946Z,92254.66
2019-01-09T12:45:52.187Z,92255.91
2019-01-09T12:48:20.152Z,92258.36
2019-01-09T12:50:48.094Z,92254.38
2019-01-09T12:53:15.913Z,92261.23
2019-01-09T12:55:43.830Z,92254.86
2019-01-09T12:58:11.791Z,92251.71
2019-01-09T13:00:39.856Z,92250.95
2019-01-09T13:03:07.766Z,92251.59
2019-01-09T13:05:35.678Z,92248.74
2019-01-09T13:08:04.044Z,92248.76
2019-01-09T13:10:31.940Z,92240.50
2019-01-09T13:13:00.037Z,92249.30
2019-01-09T13:15:27.950Z,92239.81
2019-01-09T13:17:55.818Z,92238.00
2019-01-09T13:20:23.649Z,92233.50
2019-01-09T13:22:51.458Z,92235.97
2019-01-09T13:25:19.398Z,92230.98
2019-01-09T13:27:47.252Z,92220.41
2019-01-09T13:30:20.111Z,92217.83
2019-01-09T13:32:48.036Z,92221.75
2019-01-09T13:35:17.107Z,92219.20
2019-01-09T13:37:45.481Z,92215.73
2019-01-09T13:40:18.198Z,92209.20
2019-01-09T13:42:46.416Z,92209.94
2019-01-09T13:45:16.630Z,92202.78
2019-01-09T13:47:44.615Z,92193.34
2019-01-09T13:50:12.854Z,92190.75
2019-01-09T13:52:40.863Z,92189.70
2019-01-09T13:55:10.176Z,92187.66
2019-01-09T13:57:38.166Z,92184.12
2019-01-09T14:00:09.063Z,92177.54
2019-01-09T14:02:37.036Z,92169.09
2019-01-09T14:05:06.057Z,92174.53
2019-01-09T14:07:33.948Z,92166.03
2019-01-09T14:10:01.813Z,92166.03
2019-01-09T14:12:29.581Z,92168.36
2019-01-09T14:14:57.515Z,92162.33
2019-01-09T14:17:25.577Z,92163.64
2019-01-09T14:19:53.507Z,92160.05
2019-01-09T14:22:21.438Z,92160.36
2019-01-09T14:24:49.757Z,92158.58
2019-01-09T14:27:17.825Z,92156.39
2019-01-09T14:29:45.853Z,92153.54
2019-01-09T14:32:13.797Z,92150.03
2019-01-09T14:34:41.851Z,92155.47
2019-01-09T14:37:09.552Z,92151.80
2019-01-09T14:39:37.276Z,92155.07
2019-01-09T14:42:04.852Z,92149.45
2019-01-09T14:44:32.563Z,92154.66
2019-01-09T14:47:00.216Z,92155.33
2019-01-09T14:49:27.954Z,92158.58
2019-01-09T14:51:55.888Z,92153.79
2019-01-09T14:54:23.608Z,92148.86
2019-01-09T14:56:51.274Z,92148.70
2019-01-09T14:59:19.028Z,92149.00
2019-01-09T15:01:46.785Z,92144.50
2019-01-09T15:04:14.527Z,92140.66
2019-01-09T15:06:42.150Z,92137.74
2019-01-09T15:09:09.927Z,92141.30
2019-01-09T15:11:37.692Z,92133.08
2019-01-09T15:14:05.878Z,92132.41
2019-01-09T15:16:33.730Z,92131.59
2019-01-09T15:19:01.455Z,92125.89
2019-01-09T15:21:29.172Z,92122.36
2019-01-09T15:23:56.966Z,92119.00
2019-01-09T15:26:24.590Z,92115.19
2019-01-09T15:28:52.487Z,92113.68
2019-01-09T15:31:20.349Z,92111.66
2019-01-09T15:33:48.119Z,92102.98
2019-01-09T15:36:17.155Z,92098.66
2019-01-09T15:38:45.014Z,92100.91
2019-01-09T15:41:12.830Z,92104.08
2019-01-09T15:43:40.669Z,92093.96
2019-01-09T15:46:08.451Z,92097.14
2019-01-09T15:48:36.235Z,92090.75
2019-01-09T15:51:03.913Z,92086.77
2019-01-09T15:53:31.764Z,92088.82
2019-01-09T15:55:59.661Z,92086.16
2019-01-09T15:58:27.883Z,92082.77
2019-01-09T16:00:57.219Z,92086.41
2019-01-09T16:03:24.985Z,92080.83
2019-01-09T16:05:53.026Z,92078.24
2019-01-09T16:08:20.834Z,92069.00
2019-01-09T16:10:48.704Z,92068.91
2019-01-09T16:13:16.434Z,92060.74
2019-01-09T16:15:44.773Z,92061.23
2019-01-09T16:18:12.610Z,92054.16
2019-01-09T16:20:41.051Z,92059.42
2019-01-09T16:23:09.240Z,92053.03
2019-01-09T16:25:37.156Z,92046.26
2019-01-09T16:28:06.254Z,92041.48
2019-01-09T16:30:51.247Z,92049.83
2019-01-09T16:33:19.008Z,92041.48
2019-01-09T16:35:46.623Z,92034.95
2019-01-09T16:38:14.490Z,92031.20
2019-01-09T16:40:42.066Z,92022.86
2019-01-09T16:43:09.719Z,92026.98
2019-01-09T16:45:37.604Z,92017.86
2019-01-09T16:48:05.412Z,92013.55
2019-01-09T16:50:33.240Z,92019.63
2019-01-09T16:53:00.935Z,92021.08
2019-01-09T16:55:28.762Z,92020.53
2019-01-09T16:57:56.649Z,92019.52
2019-01-09T17:00:26.393Z,92025.42
2019-01-09T17:02:54.214Z,92029.89
2019-01-09T17:05:22.298Z,92028.08
2019-01-09T17:07:50.794Z,92039.07
2019-01-09T17:10:19.777Z,92029.95
2019-01-09T17:12:51.711Z,92026.59
2019-01-09T17:15:24.146Z,92023.32
2019-01-09T17:17:54.434Z,92026.48
2019-01-09T17:20:24.935Z,92016.33
2019-01-09T17:22:55.744Z,92020.00
2019-01-09T17:25:25.491Z,92027.17
2019-01-09T17:27:53.585Z,92016.82
2019-01-09T17:30:23.413Z,92017.18
2019-01-09T17:32:51.095Z,92018.86
2019-01-09T17:35:18.897Z,92013.75
2019-01-09T17:37:46.654Z,92017.56
2019-01-09T17:40:15.149Z,92017.89
2019-01-09T17:42:43.192Z,92008.92
2019-01-09T17:45:11.306Z,92009.26
2019-01-09T17:47:38.966Z,92009.58
2019-01-09T17:50:13.485Z,91999.55
2019-01-09T17:52:41.180Z,91997.22
2019-01-09T17:55:10.076Z,92002.14
2019-01-09T17:57:37.815Z,91998.16
2019-01-09T18:00:09.475Z,91999.55
2019-01-09T18:02:37.373Z,91995.91
2019-01-09T18:05:05.307Z,91992.64
2019-01-09T18:07:33.312Z,91993.95
2019-01-09T18:10:01.120Z,91989.53
2019-01-09T18:12:28.747Z,91986.88
2019-01-09T18:14:56.592Z,91988.01
2019-01-09T18:17:24.482Z,91981.59
2019-01-09T18:19:52.645Z,91981.10
2019-01-09T18:22:20.758Z,91980.92
2019-01-09T18:24:48.488Z,91981.81
2019-01-09T18:27:16.318Z,91976.17
2019-01-09T18:29:44.645Z,91975.23
2019-01-09T18:32:24.636Z,91979.36
2019-01-09T18:35:09.652Z,91979.05
2019-01-09T18:38:15.772Z,91980.88
2019-01-09T18:41:08.767Z,91978.91
2019-01-09T18:44:14.141Z,91983.48
2019-01-09T18:47:15.640Z,91981.19
2019-01-09T18:50:12.861Z,91980.16
2019-01-09T18:53:12.887Z,91986.73
2019-01-09T18:55:41.136Z,91983.06
2019-01-09T18:58:09.299Z,91984.64
2019-01-09T19:00:37.497Z,91984.64
2019-01-09T19:03:05.653Z,91989.51
2019-01-09T19:05:34.004Z,91983.53
2019-01-09T19:08:02.132Z,91985.20
2019-01-09T19:10:30.291Z,91981.95
2019-01-09T19:12:58.561Z,91981.13
2019-01-09T19:15:26.629Z,91979.59
2019-01-09T19:17:54.919Z,91975.52
2019-01-09T19:20:23.085Z,91986.22
2019-01-09T19:22:51.556Z,91986.39
2019-01-09T19:25:19.813Z,91983.36
2019-01-09T19:27:47.907Z,91981.27
2019-01-09T19:30:22.795Z,91979.82
2019-01-09T19:32:50.915Z,91984.13
2019-01-09T19:35:18.977Z,91980.27
2019-01-09T19:37:47.030Z,91983.58
2019-01-09T19:40:15.116Z,91979.05
2019-01-09T19:42:43.505Z,91978.55
2019-01-09T19:45:12.014Z,91971.70
2019-01-09T19:47:40.159Z,91981.08
2019-01-09T19:50:10.223Z,91979.55
2019-01-09T19:52:38.347Z,91980.00
2019-01-09T19:55:07.295Z,91978.99
2019-01-09T19:57:35.459Z,91986.66
2019-01-09T20:00:05.822Z,91981.30
2019-01-09T20:02:34.004Z,91976.38
2019-01-09T20:05:02.085Z,91986.70
2019-01-09T20:07:29.960Z,91984.26
2019-01-09T20:09:58.048Z,91969.47
2019-01-09T20:12:26.229Z,91982.62
2019-01-09T20:14:54.279Z,91974.51
2019-01-09T20:17:22.331Z,91981.08
2019-01-09T20:19:50.543Z,91978.28
2019-01-09T20:22:18.722Z,91978.77
2019-01-09T20:24:47.102Z,91981.95
2019-01-09T20:27:15.116Z,91981.91
2019-01-09T20:29:43.484Z,91987.71
2019-01-09T20:32:12.224Z,91983.08
2019-01-09T20:34:40.195Z,91987.31
2019-01-09T20:37:08.385Z,91982.45
2019-01-09T20:39:36.931Z,91991.75
2019-01-09T20:42:05.127Z,91991.75
2019-01-09T20:44:33.358Z,91990.16
2019-01-09T20:47:01.539Z,91993.02
2019-01-09T20:49:29.826Z,91987.49
2019-01-09T20:51:57.946Z,91988.12
2019-01-09T20:54:26.109Z,91994.56
2019-01-09T20:56:54.454Z,91993.30
2019-01-09T20:59:22.387Z,91990.39
2019-01-09T21:01:50.274Z,91994.11
2019-01-09T21:04:18.565Z,91986.90
2019-01-09T21:06:46.535Z,91991.16
2019-01-09T21:09:14.538Z,91994.06
2019-01-09T21:11:44.501Z,91990.21
2019-01-09T21:14:12.574Z,91991.44
2019-01-09T21:16:40.675Z,91995.24
2019-01-09T21:19:08.314Z,92004.27
2019-01-09T21:21:36.409Z,91999.70
2019-01-09T21:24:04.881Z,92006.72
2019-01-09T21:26:33.024Z,92003.41
2019-01-09T21:29:01.746Z,92003.55
2019-01-09T21:31:29.795Z,92005.22
2019-01-09T21:33:57.833Z,92010.80
2019-01-09T21:36:26.727Z,92009.35
2019-01-09T21:38:54.738Z,92012.06
2019-01-09T21:41:23.011Z,92006.53
2019-01-09T21:43:51.078Z,92010.02
2019-01-09T21:46:19.079Z,92001.62
2019-01-09T21:48:47.014Z,92011.02
2019-01-09T21:51:15.092Z,92000.23
2019-01-09T21:53:43.109Z,92005.08
2019-01-09T21:56:11.442Z,92004.89
2019-01-09T21:58:39.128Z,92008.24
2019-01-09T22:01:07.064Z,92012.55
2019-01-09T22:03:35.131Z,92011.11
2019-01-09T22:06:03.078Z,92008.47
2019-01-09T22:08:30.965Z,92011.16
2019-01-09T22:10:58.958Z,92008.97
2019-01-09T22:13:27.115Z,92015.19
2019-01-09T22:15:54.977Z,92017.45
2019-01-09T22:18:22.947Z,92018.35
2019-01-09T22:20:50.912Z,92015.00
2019-01-09T22:23:18.775Z,92016.23
2019-01-09T22:25:46.862Z,92017.08
2019-01-09T22:28:14.433Z,92020.04
2019-01-09T22:30:42.484Z,92018.23
2019-01-09T22:33:10.452Z,92023.54
2019-01-09T22:35:41.695Z,92026.17
2019-01-09T22:38:08.231Z,92024.62
2019-01-09T22:40:36.406Z,92021.76
2019-01-09T22:43:04.469Z,92019.71
2019-01-09T22:45:32.452Z,92024.81
2019-01-09T22:48:00.523Z,92035.51
2019-01-09T22:50:28.548Z,92036.13
2019-01-09T22:52:56.567Z,92044.52
2019-01-09T22:55:24.738Z,92046.18
2019-01-09T22:57:52.922Z,92046.48
2019-01-09T23:00:35.826Z,92041.58
2019-01-09T23:03:04.865Z,92036.00
2019-01-09T23:05:33.103Z,92034.28
2019-01-09T23:08:01.168Z,92040.76
2019-01-09T23:10:29.113Z,92036.99
2019-01-09T23:12:57.211Z,92033.02
2019-01-09T23:15:24.960Z,92029.98
2019-01-09T23:17:52.829Z,92035.47
2019-01-09T23:20:20.905Z,92033.11
2019-01-09T23:22:48.936Z,92022.45
2019-01-09T23:25:16.836Z,92031.34
2019-01-09T23:27:44.616Z,92025.81
2019-01-09T23:30:12.692Z,92027.21
2019-01-09T23:32:40.842Z,92025.32
2019-01-09T23:35:09.030Z,92032.61
2019-01-09T23:37:37.407Z,92029.75
2019-01-09T23:40:05.697Z,92021.91
2019-01-09T23:42:33.751Z,92026.09
2019-01-09T23:45:01.729Z,92025.78
2019-01-09T23:47:29.898Z,92021.37
2019-01-09T23:49:57.775Z,92009.48
2019-01-09T23:52:26.072Z,92011.25
2019-01-09T23:54:54.030Z,92012.13
2019-01-09T23:57:22.081Z,92012.25
2019-01-09T23:59:49.957Z,92008.53
